createdAt,value
2023-03-24T00:00:31.810Z,11.34
2023-03-24T00:03:03.120Z,11.33
2023-03-24T00:05:31.980Z,11.36
2023-03-24T00:08:02.372Z,11.41
2023-03-24T00:10:31.878Z,11.47
2023-03-24T00:12:59.944Z,11.48
2023-03-24T00:15:28.320Z,11.49
2023-03-24T00:17:59.261Z,11.50
2023-03-24T00:20:27.618Z,11.47
2023-03-24T00:22:59.972Z,11.42
2023-03-24T00:25:35.274Z,11.40
2023-03-24T00:28:04.527Z,11.43
2023-03-24T00:30:33.156Z,11.44
2023-03-24T00:33:03.217Z,11.46
2023-03-24T00:35:31.289Z,11.50
2023-03-24T00:37:59.693Z,11.48
2023-03-24T00:40:28.936Z,11.49
2023-03-24T00:42:57.010Z,11.50
2023-03-24T00:45:25.117Z,11.51
2023-03-24T00:47:55.408Z,11.52
2023-03-24T00:50:28.009Z,11.42
2023-03-24T00:52:56.388Z,11.43
2023-03-24T00:55:24.556Z,11.45
2023-03-24T00:57:52.681Z,11.44
2023-03-24T01:00:25.208Z,11.42
2023-03-24T01:02:55.329Z,11.41
2023-03-24T01:05:25.045Z,11.40
2023-03-24T01:07:57.901Z,11.41
2023-03-24T01:10:27.686Z,11.43
2023-03-24T01:12:59.692Z,11.43
2023-03-24T01:15:31.328Z,11.42
2023-03-24T01:17:59.385Z,11.43
2023-03-24T01:20:27.505Z,11.43
2023-03-24T01:22:55.624Z,11.41
2023-03-24T01:25:24.534Z,11.38
2023-03-24T01:27:53.144Z,11.37
2023-03-24T01:30:27.594Z,11.36
2023-03-24T01:32:55.634Z,11.37
2023-03-24T01:35:24.298Z,11.36
2023-03-24T01:37:52.362Z,11.36
2023-03-24T01:40:23.146Z,11.36
2023-03-24T01:42:52.555Z,11.35
2023-03-24T01:45:42.311Z,11.35
2023-03-24T01:48:23.776Z,11.34
2023-03-24T01:51:02.024Z,11.31
2023-03-24T01:53:30.201Z,11.33
2023-03-24T01:55:58.451Z,11.28
2023-03-24T01:58:27.363Z,11.29
2023-03-24T02:00:55.639Z,11.33
2023-03-24T02:03:27.005Z,11.34
2023-03-24T02:05:55.361Z,11.34
2023-03-24T02:08:32.483Z,11.32
2023-03-24T02:11:00.900Z,11.33
2023-03-24T02:13:29.044Z,11.35
2023-03-24T02:16:01.721Z,11.36
2023-03-24T02:18:56.577Z,11.33
2023-03-24T02:21:46.401Z,11.35
2023-03-24T02:24:36.196Z,11.31
2023-03-24T02:27:13.074Z,11.30
2023-03-24T02:30:20.721Z,11.27
2023-03-24T02:32:55.199Z,11.24
2023-03-24T02:35:29.530Z,11.23
2023-03-24T02:38:16.366Z,11.20
2023-03-24T02:40:56.085Z,11.19
2023-03-24T02:43:26.647Z,11.17
2023-03-24T02:46:24.331Z,11.13
2023-03-24T02:49:23.203Z,11.13
2023-03-24T02:51:55.310Z,11.14
2023-03-24T02:54:36.309Z,11.12
2023-03-24T02:57:11.822Z,11.12
2023-03-24T02:59:45.818Z,11.14
2023-03-24T03:02:22.468Z,11.12
2023-03-24T03:04:56.815Z,11.14
2023-03-24T03:07:26.877Z,11.12
2023-03-24T03:10:05.436Z,11.12
2023-03-24T03:12:35.447Z,11.15
2023-03-24T03:15:06.725Z,11.14
2023-03-24T03:17:41.183Z,11.15
2023-03-24T03:20:14.877Z,11.16
2023-03-24T03:22:55.035Z,11.15
2023-03-24T03:25:25.055Z,11.13
2023-03-24T03:27:54.754Z,11.11
2023-03-24T03:30:31.615Z,11.12
2023-03-24T03:33:04.860Z,11.14
2023-03-24T03:35:51.435Z,11.14
2023-03-24T03:38:38.649Z,11.12
2023-03-24T03:41:07.111Z,11.08
2023-03-24T03:43:35.514Z,11.07
2023-03-24T03:46:03.994Z,11.04
2023-03-24T03:48:32.124Z,11.02
2023-03-24T03:51:13.185Z,11.03
2023-03-24T03:53:45.352Z,11.06
2023-03-24T03:56:14.042Z,11.08
2023-03-24T03:58:43.880Z,11.06
2023-03-24T04:01:13.053Z,11.07
2023-03-24T04:03:57.596Z,11.09
2023-03-24T04:06:34.636Z,11.08
2023-03-24T04:09:26.021Z,11.04
2023-03-24T04:12:09.455Z,11.04
2023-03-24T04:15:12.461Z,11.04
2023-03-24T04:18:02.324Z,11.00
2023-03-24T04:20:39.838Z,10.93
2023-03-24T04:23:15.857Z,10.87
2023-03-24T04:26:11.885Z,10.88
2023-03-24T04:28:59.450Z,10.85
2023-03-24T04:31:36.346Z,10.80
2023-03-24T04:34:13.622Z,10.76
2023-03-24T04:36:45.802Z,10.77
2023-03-24T04:39:21.319Z,10.78
2023-03-24T04:41:49.823Z,10.75
2023-03-24T04:44:18.933Z,10.77
2023-03-24T04:46:46.855Z,10.75
2023-03-24T04:49:14.800Z,10.76
2023-03-24T04:51:43.465Z,10.75
2023-03-24T04:54:12.752Z,10.78
2023-03-24T04:56:53.445Z,10.80
2023-03-24T04:59:21.548Z,10.82
2023-03-24T05:01:53.107Z,10.80
2023-03-24T05:04:22.863Z,10.81
2023-03-24T05:06:54.006Z,10.84
2023-03-24T05:09:24.023Z,10.82
2023-03-24T05:11:52.452Z,10.82
2023-03-24T05:14:20.476Z,10.84
2023-03-24T05:16:48.580Z,10.86
2023-03-24T05:19:17.419Z,10.87
2023-03-24T05:21:45.665Z,10.86
2023-03-24T05:24:13.937Z,10.86
2023-03-24T05:26:41.874Z,10.88
2023-03-24T05:29:09.895Z,10.87
2023-03-24T05:31:38.047Z,10.87
2023-03-24T05:34:06.063Z,10.88
2023-03-24T05:36:34.065Z,10.90
2023-03-24T05:39:02.168Z,10.91
2023-03-24T05:41:30.292Z,10.88
2023-03-24T05:43:58.231Z,10.89
2023-03-24T05:46:26.674Z,10.88
2023-03-24T05:48:54.787Z,10.89
2023-03-24T05:51:22.900Z,10.89
2023-03-24T05:53:50.981Z,10.89
2023-03-24T05:56:19.013Z,10.92
2023-03-24T05:58:47.140Z,10.97
2023-03-24T06:01:15.255Z,11.01
2023-03-24T06:03:43.382Z,11.02
2023-03-24T06:06:15.908Z,11.03
2023-03-24T06:08:46.273Z,11.03
2023-03-24T06:11:14.335Z,11.03
2023-03-24T06:13:42.292Z,11.02
2023-03-24T06:16:11.194Z,11.03
2023-03-24T06:18:41.912Z,11.07
2023-03-24T06:21:09.985Z,11.11
2023-03-24T06:23:38.012Z,11.13
2023-03-24T06:26:09.971Z,11.17
2023-03-24T06:28:41.088Z,11.15
2023-03-24T06:31:20.182Z,11.15
2023-03-24T06:33:49.535Z,11.19
2023-03-24T06:36:17.637Z,11.20
2023-03-24T06:38:45.846Z,11.22
2023-03-24T06:41:14.085Z,11.23
2023-03-24T06:43:42.223Z,11.26
2023-03-24T06:46:11.472Z,11.30
2023-03-24T06:48:40.483Z,11.30
2023-03-24T06:51:08.660Z,11.35
2023-03-24T06:53:36.692Z,11.38
2023-03-24T06:56:04.943Z,11.43
2023-03-24T06:58:34.004Z,11.48
2023-03-24T07:01:02.971Z,11.50
2023-03-24T07:03:31.121Z,11.51
2023-03-24T07:06:00.585Z,11.54
2023-03-24T07:08:38.302Z,11.62
2023-03-24T07:11:08.404Z,11.89
2023-03-24T07:13:36.558Z,12.08
2023-03-24T07:16:04.811Z,11.91
2023-03-24T07:18:32.913Z,11.85
2023-03-24T07:21:01.079Z,11.77
2023-03-24T07:23:29.356Z,11.75
2023-03-24T07:25:57.693Z,11.70
2023-03-24T07:28:26.148Z,11.70
2023-03-24T07:30:55.378Z,11.67
2023-03-24T07:33:25.745Z,11.66
2023-03-24T07:35:58.526Z,11.64
2023-03-24T07:38:27.352Z,11.64
2023-03-24T07:40:55.357Z,11.60
2023-03-24T07:43:23.473Z,11.60
2023-03-24T07:45:51.536Z,11.61
2023-03-24T07:48:19.745Z,11.64
2023-03-24T07:50:47.862Z,11.65
2023-03-24T07:53:19.951Z,11.67
2023-03-24T07:55:48.795Z,11.68
2023-03-24T07:58:17.101Z,11.70
2023-03-24T08:00:46.177Z,11.72
2023-03-24T08:03:15.797Z,11.75
2023-03-24T08:05:45.137Z,11.85
2023-03-24T08:08:13.382Z,11.82
2023-03-24T08:10:41.429Z,11.83
2023-03-24T08:13:09.473Z,11.83
2023-03-24T08:15:37.456Z,11.83
2023-03-24T08:18:05.777Z,11.83
2023-03-24T08:20:33.987Z,11.81
2023-03-24T08:23:02.397Z,11.81
2023-03-24T08:25:30.463Z,11.84
2023-03-24T08:27:58.479Z,11.86
2023-03-24T08:30:27.529Z,11.88
2023-03-24T08:33:00.616Z,11.91
2023-03-24T08:35:35.976Z,11.93
2023-03-24T08:38:06.924Z,12.03
2023-03-24T08:40:36.166Z,12.10
2023-03-24T08:43:05.688Z,12.19
2023-03-24T08:45:33.904Z,12.28
2023-03-24T08:48:04.014Z,12.36
2023-03-24T08:50:34.307Z,12.38
2023-03-24T08:53:03.054Z,12.45
2023-03-24T08:55:31.115Z,12.52
2023-03-24T08:57:59.085Z,12.57
2023-03-24T09:00:27.151Z,12.63
2023-03-24T09:02:55.533Z,12.68
2023-03-24T09:05:36.598Z,12.70
2023-03-24T09:08:12.840Z,12.69
2023-03-24T09:10:42.180Z,12.73
2023-03-24T09:13:10.380Z,12.73
2023-03-24T09:15:38.807Z,12.74
2023-03-24T09:18:07.126Z,12.77
2023-03-24T09:20:35.169Z,12.74
2023-03-24T09:23:03.230Z,12.75
2023-03-24T09:25:31.430Z,12.79
2023-03-24T09:27:59.471Z,12.84
2023-03-24T09:30:30.362Z,12.92
2023-03-24T09:33:00.352Z,12.98
2023-03-24T09:35:28.636Z,12.97
2023-03-24T09:37:57.112Z,12.99
2023-03-24T09:40:37.326Z,13.00
2023-03-24T09:43:20.785Z,13.06
2023-03-24T09:45:52.836Z,13.06
2023-03-24T09:48:53.235Z,13.01
2023-03-24T09:51:30.908Z,13.06
2023-03-24T09:54:23.620Z,13.11
2023-03-24T09:56:52.009Z,13.17
2023-03-24T09:59:22.098Z,13.18
2023-03-24T10:01:50.395Z,13.17
2023-03-24T10:04:22.953Z,13.11
2023-03-24T10:06:54.694Z,13.10
2023-03-24T10:09:30.996Z,13.12
2023-03-24T10:12:08.008Z,13.19
2023-03-24T10:15:02.068Z,13.23
2023-03-24T10:18:14.231Z,13.27
2023-03-24T10:21:08.967Z,13.28
2023-03-24T10:23:42.913Z,13.23
2023-03-24T10:26:15.675Z,13.19
2023-03-24T10:29:05.990Z,13.16
2023-03-24T10:31:35.049Z,13.14
2023-03-24T10:34:03.077Z,13.03
2023-03-24T10:36:32.322Z,13.11
2023-03-24T10:39:12.636Z,13.10
2023-03-24T10:41:46.504Z,13.03
2023-03-24T10:44:15.356Z,13.03
2023-03-24T10:46:48.366Z,13.03
2023-03-24T10:49:18.672Z,12.98
2023-03-24T10:51:51.526Z,12.96
2023-03-24T10:54:27.116Z,12.92
2023-03-24T10:57:04.989Z,12.84
2023-03-24T10:59:42.112Z,12.93
2023-03-24T11:02:32.482Z,12.94
2023-03-24T11:05:03.830Z,12.98
2023-03-24T11:07:38.821Z,13.02
2023-03-24T11:10:13.102Z,13.07
2023-03-24T11:12:42.360Z,13.10
2023-03-24T11:15:22.124Z,13.16
2023-03-24T11:17:57.839Z,13.15
2023-03-24T11:20:33.081Z,13.16
2023-03-24T11:23:05.365Z,13.16
2023-03-24T11:25:38.230Z,13.31
2023-03-24T11:28:19.751Z,13.33
2023-03-24T11:30:52.204Z,13.39
2023-03-24T11:33:35.624Z,13.44
2023-03-24T11:36:28.491Z,13.41
2023-03-24T11:39:14.065Z,13.41
2023-03-24T11:42:05.735Z,13.39
2023-03-24T11:44:43.378Z,13.38
2023-03-24T11:47:25.425Z,13.41
2023-03-24T11:50:02.773Z,13.43
2023-03-24T11:52:37.792Z,13.35
2023-03-24T11:55:07.980Z,13.30
2023-03-24T11:57:57.597Z,13.29
2023-03-24T12:00:30.047Z,13.28
2023-03-24T12:03:02.144Z,13.43
2023-03-24T12:05:35.099Z,13.48
2023-03-24T12:08:12.530Z,13.42
2023-03-24T12:10:50.138Z,13.49
2023-03-24T12:13:32.203Z,13.54
2023-03-24T12:16:13.250Z,13.61
2023-03-24T12:18:44.395Z,13.86
2023-03-24T12:21:50.010Z,13.92
2023-03-24T12:24:23.941Z,13.92
2023-03-24T12:26:53.317Z,14.01
2023-03-24T12:29:49.809Z,14.15
2023-03-24T12:32:33.053Z,14.14
2023-03-24T12:35:16.100Z,14.14
2023-03-24T12:37:47.707Z,14.12
2023-03-24T12:40:43.311Z,14.13
2023-03-24T12:43:30.110Z,14.16
2023-03-24T12:45:58.827Z,14.15
2023-03-24T12:48:50.132Z,13.99
2023-03-24T12:51:31.326Z,13.87
2023-03-24T12:54:20.589Z,13.70
2023-03-24T12:57:13.742Z,13.60
2023-03-24T12:59:59.298Z,13.35
2023-03-24T13:03:05.699Z,13.22
2023-03-24T13:05:35.799Z,13.21
2023-03-24T13:08:11.412Z,12.88
2023-03-24T13:10:41.903Z,12.66
2023-03-24T13:13:12.996Z,12.54
2023-03-24T13:16:00.517Z,12.41
2023-03-24T13:18:40.908Z,12.36
2023-03-24T13:21:20.599Z,12.23
2023-03-24T13:23:56.584Z,12.28
2023-03-24T13:27:04.235Z,12.27
2023-03-24T13:29:49.477Z,12.34
2023-03-24T13:32:26.802Z,12.36
2023-03-24T13:35:21.659Z,12.39
2023-03-24T13:37:52.708Z,12.41
2023-03-24T13:40:25.134Z,12.41
2023-03-24T13:43:01.026Z,12.44
2023-03-24T13:45:49.564Z,12.45
2023-03-24T13:48:19.837Z,12.40
2023-03-24T13:51:01.582Z,12.42
2023-03-24T13:53:35.838Z,12.39
2023-03-24T13:56:04.847Z,12.42
2023-03-24T13:58:50.725Z,12.41
2023-03-24T14:01:39.321Z,12.36
2023-03-24T14:04:26.631Z,12.30
2023-03-24T14:06:58.423Z,12.18
2023-03-24T14:09:31.193Z,12.16
2023-03-24T14:12:06.327Z,12.13
2023-03-24T14:14:35.972Z,12.07
2023-03-24T14:17:09.639Z,12.03
2023-03-24T14:19:42.167Z,11.92
2023-03-24T14:22:28.551Z,11.92
2023-03-24T14:25:19.551Z,11.80
2023-03-24T14:27:48.727Z,11.78
2023-03-24T14:30:32.067Z,11.74
2023-03-24T14:33:01.213Z,11.68
2023-03-24T14:35:43.439Z,11.64
2023-03-24T14:38:17.655Z,11.55
2023-03-24T14:40:47.720Z,11.53
2023-03-24T14:43:26.560Z,11.53
2023-03-24T14:45:55.545Z,11.44
2023-03-24T14:48:31.246Z,11.42
2023-03-24T14:51:07.546Z,11.45
2023-03-24T14:53:36.383Z,11.53
2023-03-24T14:56:05.016Z,11.58
2023-03-24T14:58:40.382Z,11.64
2023-03-24T15:01:08.665Z,11.61
2023-03-24T15:04:17.308Z,11.61
2023-03-24T15:06:48.235Z,11.68
2023-03-24T15:09:19.721Z,11.72
2023-03-24T15:11:48.516Z,11.79
2023-03-24T15:14:22.829Z,11.81
2023-03-24T15:16:56.138Z,11.81
2023-03-24T15:19:28.293Z,11.80
2023-03-24T15:22:08.389Z,11.79
2023-03-24T15:24:37.912Z,11.80
2023-03-24T15:27:09.141Z,11.77
2023-03-24T15:29:41.593Z,11.78
2023-03-24T15:32:22.144Z,11.73
2023-03-24T15:34:52.069Z,11.67
2023-03-24T15:37:25.329Z,11.55
2023-03-24T15:40:01.683Z,11.55
2023-03-24T15:42:34.149Z,11.56
2023-03-24T15:45:28.469Z,11.52
2023-03-24T15:47:57.290Z,11.50
2023-03-24T15:50:39.220Z,11.48
2023-03-24T15:53:08.618Z,11.42
2023-03-24T15:55:37.986Z,11.38
2023-03-24T15:58:25.753Z,11.35
2023-03-24T16:00:54.555Z,11.32
2023-03-24T16:03:27.729Z,11.31
2023-03-24T16:05:56.577Z,11.26
2023-03-24T16:08:33.232Z,11.26
2023-03-24T16:11:02.813Z,11.10
2023-03-24T16:13:30.856Z,11.10
2023-03-24T16:16:23.084Z,11.03
2023-03-24T16:18:53.047Z,10.94
2023-03-24T16:21:29.276Z,10.87
2023-03-24T16:23:58.562Z,10.77
2023-03-24T16:26:35.706Z,10.66
2023-03-24T16:29:15.685Z,10.62
2023-03-24T16:31:43.873Z,10.57
2023-03-24T16:34:12.313Z,10.43
2023-03-24T16:36:40.614Z,10.40
2023-03-24T16:39:14.662Z,10.34
2023-03-24T16:41:42.802Z,10.30
2023-03-24T16:44:10.818Z,10.20
2023-03-24T16:46:39.145Z,10.18
2023-03-24T16:49:08.318Z,10.16
2023-03-24T16:51:36.447Z,10.15
2023-03-24T16:54:06.047Z,10.12
2023-03-24T16:56:34.162Z,10.15
2023-03-24T16:59:02.226Z,10.11
2023-03-24T17:01:41.149Z,10.09
2023-03-24T17:04:16.020Z,10.10
2023-03-24T17:06:45.661Z,10.08
2023-03-24T17:09:14.173Z,10.08
2023-03-24T17:11:46.277Z,10.00
2023-03-24T17:14:14.316Z,10.05
2023-03-24T17:16:46.456Z,10.04
2023-03-24T17:19:16.612Z,10.01
2023-03-24T17:21:56.816Z,10.02
2023-03-24T17:24:25.582Z,10.01
2023-03-24T17:26:54.032Z,10.00
2023-03-24T17:29:22.707Z,9.99
2023-03-24T17:31:54.461Z,10.00
2023-03-24T17:34:22.653Z,10.00
2023-03-24T17:36:52.021Z,9.97
2023-03-24T17:39:20.765Z,9.96
2023-03-24T17:41:49.010Z,9.95
2023-03-24T17:44:18.289Z,9.94
2023-03-24T17:46:46.452Z,9.94
2023-03-24T17:49:14.491Z,9.94
2023-03-24T17:51:42.677Z,9.91
2023-03-24T17:54:11.936Z,9.89
2023-03-24T17:56:40.337Z,9.90
2023-03-24T17:59:08.380Z,9.89
2023-03-24T18:01:40.409Z,9.88
2023-03-24T18:04:09.041Z,9.86
2023-03-24T18:06:37.323Z,9.86
2023-03-24T18:09:05.740Z,9.82
2023-03-24T18:11:33.861Z,9.81
2023-03-24T18:14:01.934Z,9.81
2023-03-24T18:16:32.229Z,9.70
2023-03-24T18:19:01.991Z,9.63
2023-03-24T18:21:30.113Z,9.57
2023-03-24T18:23:58.665Z,9.55
2023-03-24T18:26:27.853Z,9.50
2023-03-24T18:28:55.922Z,9.45
2023-03-24T18:31:25.508Z,9.37
2023-03-24T18:33:53.871Z,9.29
2023-03-24T18:36:22.878Z,9.26
2023-03-24T18:38:50.853Z,9.26
2023-03-24T18:41:19.668Z,9.29
2023-03-24T18:43:49.110Z,9.31
2023-03-24T18:46:17.427Z,9.28
2023-03-24T18:48:45.609Z,9.30
2023-03-24T18:51:13.619Z,9.27
2023-03-24T18:53:41.692Z,9.28
2023-03-24T18:56:10.079Z,9.30
2023-03-24T18:58:39.673Z,9.32
2023-03-24T19:01:10.348Z,9.36
2023-03-24T19:03:40.096Z,9.35
2023-03-24T19:06:08.768Z,9.37
2023-03-24T19:08:39.025Z,9.39
2023-03-24T19:11:06.995Z,9.40
2023-03-24T19:13:35.143Z,9.44
2023-03-24T19:16:03.188Z,9.43
2023-03-24T19:18:31.339Z,9.44
2023-03-24T19:20:59.820Z,9.46
2023-03-24T19:23:27.971Z,9.46
2023-03-24T19:25:56.486Z,9.46
2023-03-24T19:28:30.503Z,9.45
2023-03-24T19:30:59.360Z,9.43
2023-03-24T19:33:30.814Z,9.46
2023-03-24T19:35:59.865Z,9.44
2023-03-24T19:38:27.965Z,9.43
2023-03-24T19:40:56.071Z,9.41
2023-03-24T19:43:24.535Z,9.40
2023-03-24T19:45:57.152Z,9.39
2023-03-24T19:48:25.354Z,9.38
2023-03-24T19:50:54.573Z,9.35
2023-03-24T19:53:22.990Z,9.35
2023-03-24T19:55:51.334Z,9.32
2023-03-24T19:58:19.399Z,9.30
2023-03-24T20:00:47.520Z,9.27
2023-03-24T20:03:15.560Z,9.27
2023-03-24T20:05:43.607Z,9.25
2023-03-24T20:08:11.608Z,9.22
2023-03-24T20:10:41.371Z,9.20
2023-03-24T20:13:09.754Z,9.19
2023-03-24T20:15:37.886Z,9.18
2023-03-24T20:18:06.091Z,9.22
2023-03-24T20:20:34.257Z,9.19
2023-03-24T20:23:02.334Z,9.18
2023-03-24T20:25:30.310Z,9.14
2023-03-24T20:27:58.411Z,9.09
2023-03-24T20:30:29.512Z,9.04
2023-03-24T20:32:58.273Z,9.05
2023-03-24T20:35:26.988Z,9.02
2023-03-24T20:37:54.997Z,8.98
2023-03-24T20:40:23.207Z,8.97
2023-03-24T20:42:51.967Z,8.89
2023-03-24T20:45:20.041Z,8.86
2023-03-24T20:47:48.501Z,8.85
2023-03-24T20:50:16.638Z,8.83
2023-03-24T20:52:44.620Z,8.81
2023-03-24T20:55:12.936Z,8.77
2023-03-24T20:57:40.934Z,8.77
2023-03-24T21:00:14.940Z,8.80
2023-03-24T21:02:43.829Z,8.78
2023-03-24T21:05:12.032Z,8.75
2023-03-24T21:07:43.917Z,8.74
2023-03-24T21:10:12.395Z,8.76
2023-03-24T21:12:53.963Z,8.76
2023-03-24T21:15:23.187Z,8.77
2023-03-24T21:17:51.533Z,8.73
2023-03-24T21:20:20.196Z,8.72
2023-03-24T21:22:57.290Z,8.71
2023-03-24T21:25:27.516Z,8.69
2023-03-24T21:27:55.928Z,8.70
2023-03-24T21:30:24.953Z,8.67
2023-03-24T21:32:54.062Z,8.67
2023-03-24T21:35:22.344Z,8.68
2023-03-24T21:37:50.362Z,8.72
2023-03-24T21:40:20.442Z,8.71
2023-03-24T21:42:50.970Z,8.70
2023-03-24T21:45:20.026Z,8.71
2023-03-24T21:47:48.854Z,8.72
2023-03-24T21:50:20.421Z,8.72
2023-03-24T21:52:48.907Z,8.70
2023-03-24T21:55:17.357Z,8.73
2023-03-24T21:57:46.254Z,8.68
2023-03-24T22:00:16.473Z,8.72
2023-03-24T22:02:48.736Z,8.73
2023-03-24T22:05:18.607Z,8.72
2023-03-24T22:07:48.353Z,8.71
2023-03-24T22:10:17.582Z,8.71
2023-03-24T22:12:45.651Z,8.69
2023-03-24T22:15:14.023Z,8.65
2023-03-24T22:17:42.305Z,8.65
2023-03-24T22:20:10.767Z,8.63
2023-03-24T22:22:38.996Z,8.63
2023-03-24T22:25:08.537Z,8.62
2023-03-24T22:27:36.826Z,8.63
2023-03-24T22:30:08.003Z,8.62
2023-03-24T22:32:37.974Z,8.61
2023-03-24T22:35:06.917Z,8.60
2023-03-24T22:37:35.049Z,8.58
2023-03-24T22:40:03.015Z,8.56
2023-03-24T22:42:31.005Z,8.56
2023-03-24T22:44:59.165Z,8.56
2023-03-24T22:47:28.714Z,8.59
2023-03-24T22:49:56.715Z,8.60
2023-03-24T22:52:25.553Z,8.63
2023-03-24T22:54:54.511Z,8.62
2023-03-24T22:57:22.552Z,8.64
2023-03-24T22:59:50.801Z,8.67
2023-03-24T23:02:25.596Z,8.71
2023-03-24T23:04:55.111Z,8.72
2023-03-24T23:07:23.805Z,8.76
2023-03-24T23:09:51.920Z,8.78
2023-03-24T23:12:20.057Z,8.82
2023-03-24T23:14:48.042Z,8.83
2023-03-24T23:17:17.120Z,8.84
2023-03-24T23:19:45.384Z,8.86
2023-03-24T23:22:13.478Z,8.86
2023-03-24T23:24:41.488Z,8.88
2023-03-24T23:27:09.496Z,8.90
2023-03-24T23:29:40.618Z,8.89
2023-03-24T23:32:09.467Z,8.88
2023-03-24T23:34:37.661Z,8.86
2023-03-24T23:37:06.161Z,8.88
2023-03-24T23:39:38.085Z,8.86
2023-03-24T23:42:06.573Z,8.83
2023-03-24T23:44:34.804Z,8.74
2023-03-24T23:47:02.849Z,8.72
2023-03-24T23:49:30.908Z,8.66
2023-03-24T23:51:58.904Z,8.59
2023-03-24T23:54:27.113Z,8.60
2023-03-24T23:56:55.324Z,8.56
2023-03-24T23:59:23.308Z,8.56
